»·PEaware :: ASA1157 KABQ-KSEA

ASA1157 :: KABQ-KSEA

FLIGHT INFORMATION

Flight Status: Arrived
Operator:
Alaska Airlines
More flights by this operator :: More flights under this callsign
Pilot: Michael F. (26726)
Aircraft: BOEING 737-800
(B738)
More flights by this aircraft type
Origin: KABQ Albuquerque Intl Sunport
United States
Destination: KSEA Seattle-Tacoma Intl
United States
More flights between these airports :: More routes between these airports
Route: LARGO3 RSK TCH TWF PDT CHINS4
File this flight plan on PilotEdge
Remarks: RMK / SIMBRIEF
Altitude:
(Current/Filed)
30,000ft
Speed:
(Current/Filed)
464kts
Departed: 14-Feb-21 06:03 PM
Arrived: 14-Feb-21 09:21 PM
Distance/Time
Traveled:
1024nm/3:18
Distance/Time
To Go:
Arrived

Flight Plot

Page will automatically refresh every two minutes.

Flight plan parsing failed; only flown route is shown


Map Options




Map Legend


Flown Route
Filed Route
Departure Airport
Arrival Airport
Navaid (VOR, NDB)
Fix

Horizontal Profiles

Position Reports

Time Latitude Longitude Heading Altitude Ground
Speed
14-Feb-21 17:16 35.046912 -106.618405 39 5321ft 0kts
14-Feb-21 17:17 35.046912 -106.618405 39 5321ft 0kts
14-Feb-21 17:18 35.046912 -106.618405 39 5321ft 0kts
14-Feb-21 17:19 35.046912 -106.618405 39 5321ft 0kts
14-Feb-21 17:20 35.046912 -106.618405 39 5321ft 0kts
14-Feb-21 17:21 35.046912 -106.618405 39 5321ft 0kts
14-Feb-21 17:22 35.046912 -106.618405 39 5321ft 0kts
14-Feb-21 17:22 35.046912 -106.618405 39 5321ft 0kts
14-Feb-21 17:24 35.046912 -106.618405 39 5321ft 0kts
14-Feb-21 17:24 35.046912 -106.618405 39 5321ft 0kts
14-Feb-21 17:26 35.046912 -106.618405 39 5321ft 0kts
14-Feb-21 17:26 35.046912 -106.618405 39 5321ft 0kts
14-Feb-21 17:27 35.046912 -106.618405 39 5321ft 0kts
14-Feb-21 17:28 35.046912 -106.618405 39 5321ft 0kts
14-Feb-21 17:29 35.046912 -106.618405 39 5321ft 0kts
14-Feb-21 17:30 35.046912 -106.618405 39 5321ft 0kts
14-Feb-21 17:31 35.046912 -106.618405 39 5321ft 0kts
14-Feb-21 17:32 35.046912 -106.618405 39 5321ft 0kts
14-Feb-21 17:33 35.046912 -106.618405 39 5321ft 0kts
14-Feb-21 17:34 35.046912 -106.618405 39 5321ft 0kts
14-Feb-21 17:35 35.046912 -106.618405 39 5321ft 0kts
14-Feb-21 17:36 35.046912 -106.618405 39 5321ft 0kts
14-Feb-21 17:37 35.046912 -106.618405 39 5321ft 0kts
14-Feb-21 17:38 35.046912 -106.618405 39 5321ft 0kts
14-Feb-21 17:39 35.046912 -106.618405 39 5321ft 0kts
14-Feb-21 17:40 35.046912 -106.618405 39 5321ft 0kts
14-Feb-21 17:41 35.046912 -106.618405 39 5321ft 0kts
14-Feb-21 17:42 35.046912 -106.618405 39 5321ft 0kts
14-Feb-21 17:43 35.046912 -106.618405 39 5321ft 0kts
14-Feb-21 17:44 35.046912 -106.618405 39 5321ft 0kts
14-Feb-21 17:45 35.046912 -106.618405 39 5321ft 0kts
14-Feb-21 17:46 35.046912 -106.618405 39 5321ft 0kts
14-Feb-21 17:47 35.046912 -106.618405 39 5321ft 0kts
14-Feb-21 17:48 35.046912 -106.618405 39 5321ft 0kts
14-Feb-21 17:49 35.046912 -106.618405 39 5321ft 0kts
14-Feb-21 17:50 35.046912 -106.618405 39 5321ft 0kts
14-Feb-21 17:51 35.046912 -106.618405 39 5321ft 0kts
14-Feb-21 17:52 35.046562 -106.618693 20 5321ft 2kts
14-Feb-21 17:53 35.046239 -106.618658 270 5321ft 0kts
14-Feb-21 17:54 35.046239 -106.618658 270 5321ft 0kts
14-Feb-21 17:55 35.046239 -106.618658 270 5321ft 0kts
14-Feb-21 17:56 35.046239 -106.618658 270 5321ft 0kts
14-Feb-21 17:57 35.046239 -106.618658 270 5321ft 0kts
14-Feb-21 17:58 35.046239 -106.618658 270 5321ft 0kts
14-Feb-21 17:59 35.045771 -106.619679 212 5321ft 7kts
14-Feb-21 18:00 35.045334 -106.621292 209 5321ft 3kts
14-Feb-21 18:01 35.045086 -106.621374 177 5321ft 5kts
14-Feb-21 18:02 35.044228 -106.608159 91 5321ft 124kts
14-Feb-21 18:03 35.065205 -106.565843 7 7069ft 194kts
14-Feb-21 18:04 35.116024 -106.605133 318 8902ft 250kts
14-Feb-21 18:05 35.173946 -106.666056 317 11075ft 286kts
14-Feb-21 18:06 35.234983 -106.726718 318 14117ft 281kts
14-Feb-21 18:07 35.296040 -106.789337 317 16587ft 291kts
14-Feb-21 18:08 35.364721 -106.853665 324 18014ft 341kts
14-Feb-21 18:09 35.446333 -106.925145 323 20105ft 370kts
14-Feb-21 18:10 35.531772 -107.000592 323 22476ft 384kts
14-Feb-21 18:11 35.619802 -107.078690 323 24586ft 397kts
14-Feb-21 18:12 35.710237 -107.159076 324 26601ft 403kts
14-Feb-21 18:13 35.801568 -107.240510 324 28353ft 408kts
14-Feb-21 18:14 35.894035 -107.323196 324 29760ft 412kts
14-Feb-21 18:15 35.986564 -107.406187 324 29969ft 405kts
14-Feb-21 18:16 36.077833 -107.488279 324 29965ft 407kts
14-Feb-21 18:17 36.169240 -107.570746 323 29959ft 405kts
14-Feb-21 18:18 36.260324 -107.653162 323 29954ft 405kts
14-Feb-21 18:19 36.351304 -107.735727 323 29950ft 405kts
14-Feb-21 18:20 36.442305 -107.818558 323 29945ft 405kts
14-Feb-21 18:21 36.533342 -107.901666 323 29943ft 406kts
14-Feb-21 18:22 36.624387 -107.985031 323 29944ft 407kts
14-Feb-21 18:23 36.715317 -108.068551 323 29948ft 402kts
14-Feb-21 18:24 36.806140 -108.150124 325 29944ft 402kts
14-Feb-21 18:25 36.897483 -108.230670 324 29943ft 402kts
14-Feb-21 18:26 36.988769 -108.311544 324 29937ft 403kts
14-Feb-21 18:27 37.080502 -108.393156 324 29932ft 403kts
14-Feb-21 18:28 37.171879 -108.474651 324 29930ft 403kts
14-Feb-21 18:29 37.263263 -108.556400 324 29933ft 403kts
14-Feb-21 18:30 37.354581 -108.638348 324 29926ft 403kts
14-Feb-21 18:31 37.445871 -108.720511 324 29922ft 403kts
14-Feb-21 18:32 37.536990 -108.802803 324 29936ft 402kts
14-Feb-21 18:33 37.627759 -108.884988 324 29950ft 401kts
14-Feb-21 18:34 37.718335 -108.967278 324 29949ft 400kts
14-Feb-21 18:35 37.808369 -109.049322 324 29947ft 398kts
14-Feb-21 18:36 37.897954 -109.131203 324 29962ft 396kts
14-Feb-21 18:37 37.987078 -109.212916 324 29957ft 394kts
14-Feb-21 18:38 38.076308 -109.294977 323 29961ft 397kts
14-Feb-21 18:39 38.165227 -109.376992 323 29948ft 395kts
14-Feb-21 18:40 38.254696 -109.459787 324 30829ft 398kts
14-Feb-21 18:41 38.343214 -109.541954 325 32355ft 388kts
14-Feb-21 18:42 38.429161 -109.621976 325 33829ft 376kts
14-Feb-21 18:43 38.512876 -109.700139 325 34912ft 372kts
14-Feb-21 18:44 38.596477 -109.778424 325 35700ft 373kts
14-Feb-21 18:45 38.680745 -109.857574 325 35955ft 379kts
14-Feb-21 18:46 38.765175 -109.937130 324 35963ft 373kts
14-Feb-21 18:47 38.849008 -110.016345 325 35962ft 373kts
14-Feb-21 18:48 38.930878 -110.093949 325 35947ft 361kts
14-Feb-21 18:49 39.012013 -110.171084 325 35943ft 363kts
14-Feb-21 18:50 39.093415 -110.248684 325 35975ft 364kts
14-Feb-21 18:51 39.174890 -110.326594 324 35972ft 365kts
14-Feb-21 18:52 39.256481 -110.404838 324 35970ft 365kts
14-Feb-21 18:53 39.337855 -110.483107 324 35952ft 364kts
14-Feb-21 18:54 39.418990 -110.561360 324 35958ft 364kts
14-Feb-21 18:55 39.500079 -110.639836 324 35955ft 364kts
14-Feb-21 18:56 39.581117 -110.718488 324 35947ft 362kts
14-Feb-21 18:57 39.661540 -110.796768 324 35941ft 360kts
14-Feb-21 18:58 39.741377 -110.874710 324 35946ft 357kts
14-Feb-21 19:00 39.820352 -110.952041 324 35958ft 354kts
14-Feb-21 19:01 39.898917 -111.029197 324 35972ft 351kts
14-Feb-21 19:02 39.976616 -111.105725 324 35990ft 348kts
14-Feb-21 19:03 40.053608 -111.181773 324 36000ft 348kts
14-Feb-21 19:04 40.131036 -111.258485 324 36003ft 349kts
14-Feb-21 19:05 40.207784 -111.334742 324 36003ft 345kts
14-Feb-21 19:06 40.284068 -111.410757 324 36021ft 343kts
14-Feb-21 19:07 40.359830 -111.486473 325 36022ft 341kts
14-Feb-21 19:08 40.434505 -111.561317 325 36015ft 336kts
14-Feb-21 19:09 40.508623 -111.635810 324 36017ft 336kts
14-Feb-21 19:10 40.583171 -111.710958 324 36024ft 337kts
14-Feb-21 19:11 40.650953 -111.779470 324 36028ft 337kts
14-Feb-21 19:12 40.725442 -111.854971 324 36032ft 338kts
14-Feb-21 19:13 40.800184 -111.930960 324 36032ft 339kts
14-Feb-21 19:14 40.871423 -112.013048 316 36039ft 343kts
14-Feb-21 19:15 40.934205 -112.106266 316 36030ft 334kts
14-Feb-21 19:15 40.985746 -112.182605 316 36030ft 335kts
14-Feb-21 19:17 41.058111 -112.290359 316 36034ft 336kts
14-Feb-21 19:18 41.120414 -112.383417 316 36036ft 336kts
14-Feb-21 19:18 41.171925 -112.460572 316 36028ft 335kts
14-Feb-21 19:20 41.243974 -112.568815 316 36037ft 335kts
14-Feb-21 19:20 41.295526 -112.646511 316 36038ft 336kts
14-Feb-21 19:22 41.367448 -112.755247 315 36039ft 335kts
14-Feb-21 19:22 41.418702 -112.832974 315 36039ft 334kts
14-Feb-21 19:23 41.479909 -112.926061 315 36038ft 333kts
14-Feb-21 19:25 41.550741 -113.034149 315 36037ft 331kts
14-Feb-21 19:25 41.601201 -113.111388 315 36036ft 330kts
14-Feb-21 19:26 41.661520 -113.203984 315 36035ft 329kts
14-Feb-21 19:27 41.721363 -113.296133 315 36034ft 327kts
14-Feb-21 19:28 41.780784 -113.387912 314 36033ft 326kts
14-Feb-21 19:29 41.840027 -113.479704 314 36030ft 324kts
14-Feb-21 19:30 41.898995 -113.571347 314 36027ft 324kts
14-Feb-21 19:31 41.957988 -113.663298 314 36028ft 327kts
14-Feb-21 19:32 42.018191 -113.757448 314 36025ft 335kts
14-Feb-21 19:33 42.078932 -113.852764 314 36018ft 335kts
14-Feb-21 19:34 42.139477 -113.948042 314 36014ft 334kts
14-Feb-21 19:35 42.199954 -114.043532 314 36013ft 334kts
14-Feb-21 19:36 42.260170 -114.138926 314 36016ft 334kts
14-Feb-21 19:37 42.320478 -114.234762 314 36013ft 334kts
14-Feb-21 19:38 42.380681 -114.330746 313 36014ft 334kts
14-Feb-21 19:39 42.440779 -114.426888 313 36013ft 335kts
14-Feb-21 19:40 42.503447 -114.519730 318 36013ft 334kts
14-Feb-21 19:41 42.571114 -114.606209 318 36015ft 334kts
14-Feb-21 19:42 42.638762 -114.693085 318 36019ft 334kts
14-Feb-21 19:43 42.706334 -114.780086 318 36028ft 334kts
14-Feb-21 19:44 42.773753 -114.867173 318 36038ft 335kts
14-Feb-21 19:45 42.841304 -114.954706 318 36042ft 335kts
14-Feb-21 19:46 42.908961 -115.042655 317 36041ft 335kts
14-Feb-21 19:47 42.976332 -115.130511 317 36039ft 335kts
14-Feb-21 19:48 43.043652 -115.218582 317 36031ft 335kts
14-Feb-21 19:49 43.111050 -115.307038 317 36023ft 335kts
14-Feb-21 19:50 43.178255 -115.395517 317 36019ft 335kts
14-Feb-21 19:51 43.245232 -115.483992 317 36012ft 335kts
14-Feb-21 19:52 43.312392 -115.572996 317 36005ft 335kts
14-Feb-21 19:53 43.379374 -115.662038 316 36006ft 336kts
14-Feb-21 19:54 43.446717 -115.751858 316 36004ft 336kts
14-Feb-21 19:55 43.513769 -115.841588 316 36003ft 337kts
14-Feb-21 19:56 43.581080 -115.931962 316 36001ft 336kts
14-Feb-21 19:57 43.648066 -116.022187 316 35998ft 336kts
14-Feb-21 19:58 43.715057 -116.112705 316 36004ft 337kts
14-Feb-21 19:59 43.781997 -116.203489 316 36002ft 337kts
14-Feb-21 20:00 43.849079 -116.294734 316 36011ft 337kts
14-Feb-21 20:01 43.915734 -116.385716 316 36006ft 336kts
14-Feb-21 20:02 43.982277 -116.476841 316 36015ft 335kts
14-Feb-21 20:03 44.048636 -116.568029 315 35993ft 337kts
14-Feb-21 20:04 44.115238 -116.659843 315 36018ft 336kts
14-Feb-21 20:05 44.181519 -116.751531 315 36024ft 336kts
14-Feb-21 20:06 44.247684 -116.843364 315 36031ft 335kts
14-Feb-21 20:07 44.313423 -116.934905 315 36016ft 333kts
14-Feb-21 20:08 44.379062 -117.026630 314 36015ft 332kts
14-Feb-21 20:09 44.444312 -117.118104 314 35990ft 331kts
14-Feb-21 20:10 44.509210 -117.209395 314 35976ft 331kts
14-Feb-21 20:11 44.574000 -117.300843 314 35967ft 329kts
14-Feb-21 20:12 44.638468 -117.392132 314 35956ft 328kts
14-Feb-21 20:13 44.702557 -117.483194 314 35950ft 329kts
14-Feb-21 20:14 44.767008 -117.575079 314 35947ft 329kts
14-Feb-21 20:15 44.831061 -117.666702 314 35947ft 329kts
14-Feb-21 20:16 44.895447 -117.759115 313 35949ft 330kts
14-Feb-21 20:17 44.960058 -117.852166 313 35947ft 331kts
14-Feb-21 20:18 45.024579 -117.945408 313 35945ft 332kts
14-Feb-21 20:19 45.089159 -118.039053 313 35942ft 333kts
14-Feb-21 20:20 45.153627 -118.132860 312 35940ft 330kts
14-Feb-21 20:21 45.217828 -118.226606 312 35936ft 333kts
14-Feb-21 20:22 45.282587 -118.321489 312 35920ft 334kts
14-Feb-21 20:23 45.347334 -118.416689 312 35894ft 334kts
14-Feb-21 20:24 45.411825 -118.511847 312 35883ft 334kts
14-Feb-21 20:25 45.476188 -118.607150 312 35885ft 334kts
14-Feb-21 20:26 45.540616 -118.702885 312 35921ft 334kts
14-Feb-21 20:27 45.604972 -118.798851 311 35973ft 334kts
14-Feb-21 20:28 45.669292 -118.895134 311 35999ft 334kts
14-Feb-21 20:29 45.731514 -118.993571 308 36012ft 331kts
14-Feb-21 20:30 45.791084 -119.095091 309 36038ft 333kts
14-Feb-21 20:31 45.850827 -119.196251 309 36063ft 331kts
14-Feb-21 20:32 45.910300 -119.297324 308 36068ft 331kts
14-Feb-21 20:33 45.969538 -119.398403 308 36071ft 330kts
14-Feb-21 20:34 46.028620 -119.499571 308 36074ft 331kts
14-Feb-21 20:35 46.088040 -119.601693 308 36076ft 333kts
14-Feb-21 20:36 46.147233 -119.703805 307 36075ft 331kts
14-Feb-21 20:37 46.205519 -119.804669 307 34777ft 312kts
14-Feb-21 20:38 46.260470 -119.900251 307 33167ft 309kts
14-Feb-21 20:39 46.316669 -119.998237 307 31521ft 327kts
14-Feb-21 20:40 46.376609 -120.103158 307 29762ft 350kts
14-Feb-21 20:41 46.439941 -120.214418 307 27894ft 363kts
14-Feb-21 20:42 46.504234 -120.327819 307 25994ft 361kts
14-Feb-21 20:43 46.567245 -120.439498 307 24131ft 356kts
14-Feb-21 20:44 46.624042 -120.557771 303 24046ft 357kts
14-Feb-21 20:45 46.681214 -120.676862 303 23986ft 354kts
14-Feb-21 20:46 46.737188 -120.795036 303 21953ft 354kts
14-Feb-21 20:47 46.792844 -120.912783 303 20490ft 351kts
14-Feb-21 20:48 46.848181 -121.030290 303 19186ft 350kts
14-Feb-21 20:49 46.901937 -121.144974 303 17877ft 327kts
14-Feb-21 20:50 46.951066 -121.250193 303 16566ft 299kts
14-Feb-21 20:51 46.997141 -121.349289 302 16054ft 294kts
14-Feb-21 20:52 47.042883 -121.447992 302 16010ft 292kts
14-Feb-21 20:53 47.088525 -121.546802 302 15998ft 294kts
14-Feb-21 20:54 47.134421 -121.646567 302 15996ft 295kts
14-Feb-21 20:56 47.180822 -121.747861 302 14940ft 303kts
14-Feb-21 20:57 47.226969 -121.848808 301 13086ft 292kts
14-Feb-21 20:58 47.266812 -121.936292 301 11989ft 276kts
14-Feb-21 20:59 47.305793 -122.022208 300 11160ft 270kts
14-Feb-21 21:00 47.348063 -122.115686 300 10270ft 275kts
14-Feb-21 21:01 47.419618 -122.150177 358 8995ft 286kts
14-Feb-21 21:02 47.495850 -122.146859 358 7754ft 266kts
14-Feb-21 21:03 47.567909 -122.143918 358 6692ft 251kts
14-Feb-21 21:04 47.629838 -122.141620 358 6039ft 255kts
14-Feb-21 21:05 47.698276 -122.139221 358 6008ft 242kts
14-Feb-21 21:06 47.764615 -122.136699 358 6003ft 239kts
14-Feb-21 21:07 47.830609 -122.134131 358 5994ft 236kts
14-Feb-21 21:08 47.897011 -122.131550 358 5990ft 239kts
14-Feb-21 21:09 47.943648 -122.184891 295 5993ft 219kts
14-Feb-21 21:10 47.927257 -122.253596 206 5988ft 196kts
14-Feb-21 21:11 47.877630 -122.288679 205 5985ft 194kts
14-Feb-21 21:12 47.825169 -122.304536 183 5989ft 196kts
14-Feb-21 21:13 47.770920 -122.305028 183 5984ft 191kts
14-Feb-21 21:13 47.727397 -122.305419 182 5521ft 185kts
14-Feb-21 21:14 47.675234 -122.305886 180 4535ft 190kts
14-Feb-21 21:16 47.614553 -122.306430 177 3370ft 181kts
14-Feb-21 21:16 47.573978 -122.306795 176 2597ft 169kts
14-Feb-21 21:17 47.530781 -122.307167 177 1796ft 153kts
14-Feb-21 21:19 47.482824 -122.307544 174 869ft 147kts
14-Feb-21 21:19 47.451114 -122.307836 182 442ft 66kts
14-Feb-21 21:20 47.445954 -122.306794 70 442ft 7kts
14-Feb-21 21:21 47.446629 -122.306315 0 442ft 9kts
14-Feb-21 21:22 47.449333 -122.306257 8 442ft 9kts
14-Feb-21 21:23 47.450148 -122.303861 63 442ft 11kts
14-Feb-21 21:24 47.449627 -122.301569 126 442ft 0kts
14-Feb-21 21:25 47.448754 -122.301272 217 442ft 3kts
14-Feb-21 21:26 47.448694 -122.301300 231 442ft 0kts
14-Feb-21 21:27 47.448694 -122.301300 231 442ft 0kts
14-Feb-21 21:28 47.448694 -122.301300 231 442ft 0kts
14-Feb-21 21:29 47.448694 -122.301300 231 442ft 0kts
14-Feb-21 21:30 47.448694 -122.301300 231 442ft 0kts
14-Feb-21 21:31 47.448694 -122.301300 231 442ft 0kts
14-Feb-21 21:32 47.448694 -122.301300 231 442ft 0kts
14-Feb-21 21:33 47.448694 -122.301300 231 442ft 0kts
14-Feb-21 21:34 47.448694 -122.301300 231 442ft 0kts

Navigation Log

Ident Type
Flight plan parsing failed, navigation log unavailable